sensor_id;sensor_type;location;lat;lon;timestamp;P1;P2;P0
66195;PMS7003;53000;45.182;5.736;2022-08-19T00:01:43;4.25;4.25;3.50
66195;PMS7003;53000;45.182;5.736;2022-08-19T00:04:11;4.00;4.00;2.00
66195;PMS7003;53000;45.182;5.736;2022-08-19T00:06:39;5.00;4.50;4.00
66195;PMS7003;53000;45.182;5.736;2022-08-19T00:09:07;3.75;3.25;2.50
66195;PMS7003;53000;45.182;5.736;2022-08-19T00:11:35;4.50;4.00;3.00
66195;PMS7003;53000;45.182;5.736;2022-08-19T00:14:02;4.00;3.00;3.00
66195;PMS7003;53000;45.182;5.736;2022-08-19T00:16:29;4.00;4.00;3.00
66195;PMS7003;53000;45.182;5.736;2022-08-19T00:18:54;3.00;3.00;2.50
66195;PMS7003;53000;45.182;5.736;2022-08-19T00:21:21;3.00;3.00;2.00
66195;PMS7003;53000;45.182;5.736;2022-08-19T00:23:47;3.25;3.25;2.50
66195;PMS7003;53000;45.182;5.736;2022-08-19T00:26:13;3.50;3.50;2.50
66195;PMS7003;53000;45.182;5.736;2022-08-19T00:28:39;3.00;3.00;2.00
66195;PMS7003;53000;45.182;5.736;2022-08-19T00:31:06;3.75;3.75;3.00
66195;PMS7003;53000;45.182;5.736;2022-08-19T00:33:33;3.00;3.00;2.25
66195;PMS7003;53000;45.182;5.736;2022-08-19T00:35:59;4.00;3.00;3.00
66195;PMS7003;53000;45.182;5.736;2022-08-19T00:38:25;2.75;2.00;2.00
66195;PMS7003;53000;45.182;5.736;2022-08-19T00:40:51;3.00;3.00;2.00
66195;PMS7003;53000;45.182;5.736;2022-08-19T00:43:21;3.00;2.25;2.00
66195;PMS7003;53000;45.182;5.736;2022-08-19T00:45:48;1.00;0.00;0.00
66195;PMS7003;53000;45.182;5.736;2022-08-19T00:48:14;3.50;3.00;2.75
66195;PMS7003;53000;45.182;5.736;2022-08-19T00:50:41;3.25;2.50;2.00
66195;PMS7003;53000;45.182;5.736;2022-08-19T00:53:08;5.00;3.75;3.00
66195;PMS7003;53000;45.182;5.736;2022-08-19T00:55:35;3.00;3.00;2.75
66195;PMS7003;53000;45.182;5.736;2022-08-19T00:58:04;4.00;3.00;2.75
66195;PMS7003;53000;45.182;5.736;2022-08-19T01:00:33;4.00;4.00;3.00
66195;PMS7003;53000;45.182;5.736;2022-08-19T01:03:03;3.25;2.75;2.00
66195;PMS7003;53000;45.182;5.736;2022-08-19T01:05:31;7.25;3.75;3.00
66195;PMS7003;53000;45.182;5.736;2022-08-19T01:07:58;2.75;2.50;2.00
66195;PMS7003;53000;45.182;5.736;2022-08-19T01:10:27;2.00;2.00;2.00
66195;PMS7003;53000;45.182;5.736;2022-08-19T01:12:54;3.75;2.00;2.00
66195;PMS7003;53000;45.182;5.736;2022-08-19T01:15:29;5.00;3.00;2.00
66195;PMS7003;53000;45.182;5.736;2022-08-19T01:17:57;2.25;2.00;2.00
66195;PMS7003;53000;45.182;5.736;2022-08-19T01:20:26;3.00;3.00;2.00
66195;PMS7003;53000;45.182;5.736;2022-08-19T01:22:53;3.00;3.00;2.25
66195;PMS7003;53000;45.182;5.736;2022-08-19T01:25:31;4.50;4.50;3.00
66195;PMS7003;53000;45.182;5.736;2022-08-19T01:28:01;4.00;3.00;2.00
66195;PMS7003;53000;45.182;5.736;2022-08-19T01:30:28;4.25;2.25;2.00
66195;PMS7003;53000;45.182;5.736;2022-08-19T01:32:57;3.00;3.00;3.00
66195;PMS7003;53000;45.182;5.736;2022-08-19T01:35:26;3.75;3.00;2.75
66195;PMS7003;53000;45.182;5.736;2022-08-19T01:37:55;4.00;3.75;3.00
66195;PMS7003;53000;45.182;5.736;2022-08-19T01:40:26;3.00;3.00;2.75
66195;PMS7003;53000;45.182;5.736;2022-08-19T01:42:56;3.75;3.00;2.50
66195;PMS7003;53000;45.182;5.736;2022-08-19T01:45:24;3.00;3.00;3.00
66195;PMS7003;53000;45.182;5.736;2022-08-19T01:47:51;3.00;3.00;2.75
66195;PMS7003;53000;45.182;5.736;2022-08-19T01:50:17;3.00;3.00;3.00
66195;PMS7003;53000;45.182;5.736;2022-08-19T01:52:43;4.25;4.00;3.00
66195;PMS7003;53000;45.182;5.736;2022-08-19T01:55:11;5.00;3.00;3.00
66195;PMS7003;53000;45.182;5.736;2022-08-19T01:57:40;5.50;3.00;3.00
66195;PMS7003;53000;45.182;5.736;2022-08-19T02:00:10;4.25;4.25;3.00
66195;PMS7003;53000;45.182;5.736;2022-08-19T02:02:40;4.50;4.00;3.00
66195;PMS7003;53000;45.182;5.736;2022-08-19T02:05:05;2.00;2.00;1.00
66195;PMS7003;53000;45.182;5.736;2022-08-19T02:07:33;3.00;3.00;2.25
66195;PMS7003;53000;45.182;5.736;2022-08-19T02:10:00;3.50;3.50;3.00
66195;PMS7003;53000;45.182;5.736;2022-08-19T02:12:31;3.00;3.00;2.50
66195;PMS7003;53000;45.182;5.736;2022-08-19T02:14:56;2.00;2.00;2.00
66195;PMS7003;53000;45.182;5.736;2022-08-19T02:17:23;3.50;3.00;2.25
66195;PMS7003;53000;45.182;5.736;2022-08-19T02:19:48;2.00;2.00;2.00
66195;PMS7003;53000;45.182;5.736;2022-08-19T02:22:14;3.50;2.75;2.50
66195;PMS7003;53000;45.182;5.736;2022-08-19T02:24:39;3.00;3.00;2.00
66195;PMS7003;53000;45.182;5.736;2022-08-19T02:27:05;2.00;1.50;1.00
66195;PMS7003;53000;45.182;5.736;2022-08-19T02:29:31;2.00;2.00;2.00
66195;PMS7003;53000;45.182;5.736;2022-08-19T02:31:57;4.50;4.50;4.00
66195;PMS7003;53000;45.182;5.736;2022-08-19T02:34:23;5.00;3.00;2.50
66195;PMS7003;53000;45.182;5.736;2022-08-19T02:36:50;2.00;2.00;2.00
66195;PMS7003;53000;45.182;5.736;2022-08-19T02:39:17;3.50;3.50;3.25
66195;PMS7003;53000;45.182;5.736;2022-08-19T02:41:42;2.00;2.00;2.00
66195;PMS7003;53000;45.182;5.736;2022-08-19T02:44:08;4.75;4.00;3.00
66195;PMS7003;53000;45.182;5.736;2022-08-19T02:46:34;5.00;3.00;3.00
66195;PMS7003;53000;45.182;5.736;2022-08-19T02:49:01;2.00;2.00;2.00
66195;PMS7003;53000;45.182;5.736;2022-08-19T02:51:31;3.25;3.25;3.00
66195;PMS7003;53000;45.182;5.736;2022-08-19T02:53:59;4.75;3.00;3.00
66195;PMS7003;53000;45.182;5.736;2022-08-19T02:56:25;3.00;3.00;2.50
66195;PMS7003;53000;45.182;5.736;2022-08-19T02:58:52;5.00;4.00;3.00
66195;PMS7003;53000;45.182;5.736;2022-08-19T03:01:19;3.00;3.00;2.75
66195;PMS7003;53000;45.182;5.736;2022-08-19T03:03:49;4.00;3.75;3.25
66195;PMS7003;53000;45.182;5.736;2022-08-19T03:06:16;3.25;3.00;3.00
66195;PMS7003;53000;45.182;5.736;2022-08-19T03:08:42;4.00;4.00;3.75
66195;PMS7003;53000;45.182;5.736;2022-08-19T03:11:42;3.00;3.00;3.00
66195;PMS7003;53000;45.182;5.736;2022-08-19T03:14:02;2.25;2.00;2.00
66195;PMS7003;53000;45.182;5.736;2022-08-19T03:16:29;3.00;3.00;3.00
66195;PMS7003;53000;45.182;5.736;2022-08-19T03:18:57;4.00;4.00;3.00
66195;PMS7003;53000;45.182;5.736;2022-08-19T03:21:26;5.00;3.00;3.00
66195;PMS7003;53000;45.182;5.736;2022-08-19T03:23:55;2.33;2.00;2.00
66195;PMS7003;53000;45.182;5.736;2022-08-19T03:26:23;3.00;3.00;3.00
66195;PMS7003;53000;45.182;5.736;2022-08-19T03:28:48;2.00;2.00;2.00
66195;PMS7003;53000;45.182;5.736;2022-08-19T03:31:15;4.00;3.00;3.00
66195;PMS7003;53000;45.182;5.736;2022-08-19T03:33:49;3.00;2.00;2.00
66195;PMS7003;53000;45.182;5.736;2022-08-19T03:36:17;2.67;2.67;2.00
66195;PMS7003;53000;45.182;5.736;2022-08-19T03:38:49;2.00;2.00;2.00
66195;PMS7003;53000;45.182;5.736;2022-08-19T03:41:18;3.00;3.00;3.00
66195;PMS7003;53000;45.182;5.736;2022-08-19T03:43:45;3.00;3.00;2.00
66195;PMS7003;53000;45.182;5.736;2022-08-19T03:46:15;2.00;2.00;2.00
66195;PMS7003;53000;45.182;5.736;2022-08-19T03:48:46;4.00;3.50;3.00
66195;PMS7003;53000;45.182;5.736;2022-08-19T03:51:16;2.25;2.00;2.00
66195;PMS7003;53000;45.182;5.736;2022-08-19T03:53:44;3.00;2.75;2.00
66195;PMS7003;53000;45.182;5.736;2022-08-19T03:56:11;3.00;3.00;2.00
66195;PMS7003;53000;45.182;5.736;2022-08-19T03:58:38;3.00;3.00;2.00
66195;PMS7003;53000;45.182;5.736;2022-08-19T04:01:07;2.75;2.00;2.00
66195;PMS7003;53000;45.182;5.736;2022-08-19T04:03:37;2.00;2.00;2.00
66195;PMS7003;53000;45.182;5.736;2022-08-19T04:06:19;3.00;3.00;2.00
66195;PMS7003;53000;45.182;5.736;2022-08-19T04:08:57;4.00;2.00;2.00
66195;PMS7003;53000;45.182;5.736;2022-08-19T04:11:26;3.00;2.25;2.00
66195;PMS7003;53000;45.182;5.736;2022-08-19T04:13:54;4.00;4.00;3.75
66195;PMS7003;53000;45.182;5.736;2022-08-19T04:16:22;5.25;5.00;3.75
66195;PMS7003;53000;45.182;5.736;2022-08-19T04:18:48;6.00;5.75;4.50
66195;PMS7003;53000;45.182;5.736;2022-08-19T04:21:15;5.25;5.25;4.75
66195;PMS7003;53000;45.182;5.736;2022-08-19T04:23:46;5.00;5.00;3.75
66195;PMS7003;53000;45.182;5.736;2022-08-19T04:26:12;3.25;3.25;2.75
66195;PMS7003;53000;45.182;5.736;2022-08-19T04:28:49;3.75;3.75;3.00
66195;PMS7003;53000;45.182;5.736;2022-08-19T04:31:17;3.00;3.00;2.75
66195;PMS7003;53000;45.182;5.736;2022-08-19T04:33:45;4.50;1.00;0.25
66195;PMS7003;53000;45.182;5.736;2022-08-19T04:36:17;3.00;3.00;3.00
66195;PMS7003;53000;45.182;5.736;2022-08-19T04:38:45;3.00;2.00;2.00
66195;PMS7003;53000;45.182;5.736;2022-08-19T04:41:11;3.00;3.00;2.00
66195;PMS7003;53000;45.182;5.736;2022-08-19T04:43:55;3.00;3.00;2.00
66195;PMS7003;53000;45.182;5.736;2022-08-19T04:46:21;3.75;3.25;3.00
66195;PMS7003;53000;45.182;5.736;2022-08-19T04:48:46;3.75;3.00;2.75
66195;PMS7003;53000;45.182;5.736;2022-08-19T04:51:12;3.50;3.00;2.00
66195;PMS7003;53000;45.182;5.736;2022-08-19T04:53:38;3.25;3.25;2.75
66195;PMS7003;53000;45.182;5.736;2022-08-19T04:56:15;4.00;3.75;3.00
66195;PMS7003;53000;45.182;5.736;2022-08-19T04:58:42;4.50;4.00;3.00
66195;PMS7003;53000;45.182;5.736;2022-08-19T05:01:13;4.50;4.00;3.00
66195;PMS7003;53000;45.182;5.736;2022-08-19T05:03:42;3.25;3.25;3.00
66195;PMS7003;53000;45.182;5.736;2022-08-19T05:06:09;3.50;3.50;2.50
66195;PMS7003;53000;45.182;5.736;2022-08-19T05:08:37;6.00;4.25;4.00
66195;PMS7003;53000;45.182;5.736;2022-08-19T05:11:11;5.00;5.00;3.75
66195;PMS7003;53000;45.182;5.736;2022-08-19T05:13:38;5.00;5.00;4.00
66195;PMS7003;53000;45.182;5.736;2022-08-19T05:16:04;4.00;4.00;3.25
66195;PMS7003;53000;45.182;5.736;2022-08-19T05:18:30;3.50;2.50;2.00
66195;PMS7003;53000;45.182;5.736;2022-08-19T05:21:15;3.50;3.50;3.00
66195;PMS7003;53000;45.182;5.736;2022-08-19T05:24:01;7.50;4.00;3.00
66195;PMS7003;53000;45.182;5.736;2022-08-19T05:26:27;5.00;5.00;4.00
66195;PMS7003;53000;45.182;5.736;2022-08-19T05:28:53;5.25;5.25;4.00
66195;PMS7003;53000;45.182;5.736;2022-08-19T05:31:19;5.50;4.50;3.75
66195;PMS7003;53000;45.182;5.736;2022-08-19T05:33:44;4.00;4.00;3.75
66195;PMS7003;53000;45.182;5.736;2022-08-19T05:36:10;4.50;3.75;3.00
66195;PMS7003;53000;45.182;5.736;2022-08-19T05:38:36;4.00;4.00;3.00
66195;PMS7003;53000;45.182;5.736;2022-08-19T05:41:08;4.75;4.00;3.75
66195;PMS7003;53000;45.182;5.736;2022-08-19T05:43:34;4.67;3.33;3.00
66195;PMS7003;53000;45.182;5.736;2022-08-19T05:46:00;3.50;3.00;2.75
66195;PMS7003;53000;45.182;5.736;2022-08-19T05:48:25;3.75;3.75;3.00
66195;PMS7003;53000;45.182;5.736;2022-08-19T05:50:51;5.50;4.25;3.50
66195;PMS7003;53000;45.182;5.736;2022-08-19T05:53:17;5.00;3.25;3.00
66195;PMS7003;53000;45.182;5.736;2022-08-19T05:55:43;3.50;3.50;3.00
66195;PMS7003;53000;45.182;5.736;2022-08-19T05:58:08;3.75;3.75;3.00
66195;PMS7003;53000;45.182;5.736;2022-08-19T06:00:34;4.50;4.00;3.50
66195;PMS7003;53000;45.182;5.736;2022-08-19T06:03:00;3.00;2.50;2.00
66195;PMS7003;53000;45.182;5.736;2022-08-19T06:05:28;4.00;4.00;3.50
66195;PMS7003;53000;45.182;5.736;2022-08-19T06:07:55;4.25;3.75;2.75
66195;PMS7003;53000;45.182;5.736;2022-08-19T06:10:21;3.25;3.00;2.25
66195;PMS7003;53000;45.182;5.736;2022-08-19T06:12:46;4.25;3.75;3.00
66195;PMS7003;53000;45.182;5.736;2022-08-19T06:15:13;4.00;4.00;3.00
66195;PMS7003;53000;45.182;5.736;2022-08-19T06:17:39;4.75;4.00;3.50
66195;PMS7003;53000;45.182;5.736;2022-08-19T06:20:08;5.75;4.00;3.00
66195;PMS7003;53000;45.182;5.736;2022-08-19T06:22:38;3.00;2.25;2.00
66195;PMS7003;53000;45.182;5.736;2022-08-19T06:25:05;2.00;2.00;2.00
66195;PMS7003;53000;45.182;5.736;2022-08-19T06:27:31;5.00;5.00;3.50
66195;PMS7003;53000;45.182;5.736;2022-08-19T06:29:58;3.00;3.00;2.75
66195;PMS7003;53000;45.182;5.736;2022-08-19T06:32:23;3.00;3.00;2.25
66195;PMS7003;53000;45.182;5.736;2022-08-19T06:34:49;3.25;3.00;3.00
66195;PMS7003;53000;45.182;5.736;2022-08-19T06:37:14;5.50;3.25;3.25
66195;PMS7003;53000;45.182;5.736;2022-08-19T06:39:40;4.25;3.75;3.00
66195;PMS7003;53000;45.182;5.736;2022-08-19T06:42:07;2.67;2.67;2.00
66195;PMS7003;53000;45.182;5.736;2022-08-19T06:44:36;2.67;2.67;2.00
66195;PMS7003;53000;45.182;5.736;2022-08-19T06:47:05;2.75;2.50;2.25
66195;PMS7003;53000;45.182;5.736;2022-08-19T06:49:32;2.33;2.00;1.67
66195;PMS7003;53000;45.182;5.736;2022-08-19T06:51:58;3.75;3.50;3.00
66195;PMS7003;53000;45.182;5.736;2022-08-19T06:54:24;2.00;2.00;2.00
66195;PMS7003;53000;45.182;5.736;2022-08-19T06:56:50;3.25;3.25;2.50
66195;PMS7003;53000;45.182;5.736;2022-08-19T06:59:16;4.00;3.00;3.00
66195;PMS7003;53000;45.182;5.736;2022-08-19T07:01:45;4.50;4.50;3.75
66195;PMS7003;53000;45.182;5.736;2022-08-19T07:04:16;3.00;3.00;2.50
66195;PMS7003;53000;45.182;5.736;2022-08-19T07:06:45;4.00;4.00;4.00
66195;PMS7003;53000;45.182;5.736;2022-08-19T07:09:12;3.50;3.50;3.00
66195;PMS7003;53000;45.182;5.736;2022-08-19T07:11:44;3.00;3.00;2.00
66195;PMS7003;53000;45.182;5.736;2022-08-19T07:14:11;3.25;3.00;3.00
66195;PMS7003;53000;45.182;5.736;2022-08-19T07:16:39;2.00;2.00;2.00
66195;PMS7003;53000;45.182;5.736;2022-08-19T07:19:04;3.67;2.67;2.00
66195;PMS7003;53000;45.182;5.736;2022-08-19T07:21:30;4.33;3.00;3.00
66195;PMS7003;53000;45.182;5.736;2022-08-19T07:23:56;3.00;3.00;2.00
66195;PMS7003;53000;45.182;5.736;2022-08-19T07:26:28;3.00;2.00;2.00
66195;PMS7003;53000;45.182;5.736;2022-08-19T07:28:56;3.00;3.00;2.25
66195;PMS7003;53000;45.182;5.736;2022-08-19T07:31:25;5.00;4.00;3.00
66195;PMS7003;53000;45.182;5.736;2022-08-19T07:33:53;3.00;3.00;2.75
66195;PMS7003;53000;45.182;5.736;2022-08-19T07:36:21;2.00;2.00;2.00
66195;PMS7003;53000;45.182;5.736;2022-08-19T07:38:49;2.00;2.00;2.00
66195;PMS7003;53000;45.182;5.736;2022-08-19T07:41:16;4.25;3.00;2.75
66195;PMS7003;53000;45.182;5.736;2022-08-19T07:43:46;3.00;2.00;2.00
66195;PMS7003;53000;45.182;5.736;2022-08-19T07:46:13;4.00;2.67;2.00
66195;PMS7003;53000;45.182;5.736;2022-08-19T07:48:41;2.33;2.00;2.00
66195;PMS7003;53000;45.182;5.736;2022-08-19T07:51:10;2.33;2.33;2.00
66195;PMS7003;53000;45.182;5.736;2022-08-19T07:53:36;3.00;3.00;3.00
66195;PMS7003;53000;45.182;5.736;2022-08-19T07:56:03;4.00;3.00;2.00
66195;PMS7003;53000;45.182;5.736;2022-08-19T07:58:29;3.00;3.00;2.33
66195;PMS7003;53000;45.182;5.736;2022-08-19T08:00:56;2.50;2.00;2.00
66195;PMS7003;53000;45.182;5.736;2022-08-19T08:03:22;3.50;3.50;3.00
66195;PMS7003;53000;45.182;5.736;2022-08-19T08:06:08;3.25;3.25;3.00
66195;PMS7003;53000;45.182;5.736;2022-08-19T08:08:52;4.50;3.00;2.00
66195;PMS7003;53000;45.182;5.736;2022-08-19T08:11:36;4.50;3.25;2.50
66195;PMS7003;53000;45.182;5.736;2022-08-19T08:14:05;3.00;3.00;2.00
66195;PMS7003;53000;45.182;5.736;2022-08-19T08:16:33;4.00;4.00;3.25
66195;PMS7003;53000;45.182;5.736;2022-08-19T08:19:00;4.00;4.00;3.25
66195;PMS7003;53000;45.182;5.736;2022-08-19T08:21:26;2.00;2.00;2.00
66195;PMS7003;53000;45.182;5.736;2022-08-19T08:23:51;4.75;4.00;3.00
66195;PMS7003;53000;45.182;5.736;2022-08-19T08:26:20;3.00;3.00;3.00
66195;PMS7003;53000;45.182;5.736;2022-08-19T08:28:45;3.00;3.00;3.00
66195;PMS7003;53000;45.182;5.736;2022-08-19T08:31:12;5.00;5.00;4.00
66195;PMS7003;53000;45.182;5.736;2022-08-19T08:33:37;5.75;5.00;4.50
66195;PMS7003;53000;45.182;5.736;2022-08-19T08:36:06;5.25;5.25;4.25
66195;PMS7003;53000;45.182;5.736;2022-08-19T08:38:33;3.25;3.25;3.00
66195;PMS7003;53000;45.182;5.736;2022-08-19T08:41:05;4.25;4.25;4.00
66195;PMS7003;53000;45.182;5.736;2022-08-19T08:43:39;4.75;4.75;3.75
66195;PMS7003;53000;45.182;5.736;2022-08-19T08:46:42;3.25;3.25;3.00
66195;PMS7003;53000;45.182;5.736;2022-08-19T08:55:00;3.25;3.25;2.25
66195;PMS7003;53000;45.182;5.736;2022-08-19T08:57:35;5.00;4.25;3.25
66195;PMS7003;53000;45.182;5.736;2022-08-19T09:00:06;3.50;3.25;3.25
66195;PMS7003;53000;45.182;5.736;2022-08-19T09:02:37;3.25;2.25;1.75
66195;PMS7003;53000;45.182;5.736;2022-08-19T09:05:03;3.50;3.25;2.75
66195;PMS7003;53000;45.182;5.736;2022-08-19T09:10:29;3.25;2.50;2.00
66195;PMS7003;53000;45.182;5.736;2022-08-19T09:15:51;4.75;4.25;3.50
66195;PMS7003;53000;45.182;5.736;2022-08-19T09:18:22;4.00;4.00;3.00
66195;PMS7003;53000;45.182;5.736;2022-08-19T09:20:47;4.25;4.00;3.25
66195;PMS7003;53000;45.182;5.736;2022-08-19T09:23:13;5.00;5.00;4.00
66195;PMS7003;53000;45.182;5.736;2022-08-19T09:25:38;4.00;3.00;2.50
66195;PMS7003;53000;45.182;5.736;2022-08-19T09:28:05;3.25;3.00;2.50
66195;PMS7003;53000;45.182;5.736;2022-08-19T09:30:32;3.50;3.50;3.25
66195;PMS7003;53000;45.182;5.736;2022-08-19T09:33:05;7.00;4.00;4.00
66195;PMS7003;53000;45.182;5.736;2022-08-19T09:35:31;5.50;5.00;4.00
66195;PMS7003;53000;45.182;5.736;2022-08-19T09:37:58;3.00;3.00;3.00
66195;PMS7003;53000;45.182;5.736;2022-08-19T09:40:24;4.75;4.00;3.75
66195;PMS7003;53000;45.182;5.736;2022-08-19T09:42:51;5.00;4.25;4.00
66195;PMS7003;53000;45.182;5.736;2022-08-19T09:45:19;5.25;5.25;4.25
66195;PMS7003;53000;45.182;5.736;2022-08-19T09:47:46;6.00;5.00;4.25
66195;PMS7003;53000;45.182;5.736;2022-08-19T09:50:13;6.00;6.00;4.75
66195;PMS7003;53000;45.182;5.736;2022-08-19T09:52:38;3.50;3.50;2.75
66195;PMS7003;53000;45.182;5.736;2022-08-19T09:55:05;3.00;3.00;2.50
66195;PMS7003;53000;45.182;5.736;2022-08-19T09:57:32;6.00;6.00;5.25
66195;PMS7003;53000;45.182;5.736;2022-08-19T09:59:58;5.50;5.00;4.75
66195;PMS7003;53000;45.182;5.736;2022-08-19T10:02:23;4.00;4.00;4.00
66195;PMS7003;53000;45.182;5.736;2022-08-19T10:04:49;4.75;4.25;4.00
66195;PMS7003;53000;45.182;5.736;2022-08-19T10:07:34;5.00;4.00;3.00
66195;PMS7003;53000;45.182;5.736;2022-08-19T10:10:00;4.00;4.00;4.00
66195;PMS7003;53000;45.182;5.736;2022-08-19T10:12:26;3.25;3.00;3.00
66195;PMS7003;53000;45.182;5.736;2022-08-19T10:14:51;1.25;0.50;0.25
66195;PMS7003;53000;45.182;5.736;2022-08-19T10:17:18;5.50;4.50;3.75
66195;PMS7003;53000;45.182;5.736;2022-08-19T10:19:43;5.25;5.25;4.00
66195;PMS7003;53000;45.182;5.736;2022-08-19T10:22:09;5.25;5.25;4.25
66195;PMS7003;53000;45.182;5.736;2022-08-19T10:24:39;6.00;6.00;4.00
66195;PMS7003;53000;45.182;5.736;2022-08-19T10:27:05;6.00;6.00;5.00
66195;PMS7003;53000;45.182;5.736;2022-08-19T10:29:31;5.00;5.00;4.00
66195;PMS7003;53000;45.182;5.736;2022-08-19T10:31:59;5.00;5.00;4.00
66195;PMS7003;53000;45.182;5.736;2022-08-19T10:34:31;8.00;7.00;5.50
66195;PMS7003;53000;45.182;5.736;2022-08-19T10:36:57;5.75;5.75;5.00
66195;PMS7003;53000;45.182;5.736;2022-08-19T10:39:23;6.75;6.50;5.00
66195;PMS7003;53000;45.182;5.736;2022-08-19T10:41:48;7.75;6.75;5.00
66195;PMS7003;53000;45.182;5.736;2022-08-19T10:44:13;6.00;6.00;5.00
66195;PMS7003;53000;45.182;5.736;2022-08-19T10:46:41;8.75;8.75;6.75
66195;PMS7003;53000;45.182;5.736;2022-08-19T10:49:10;8.00;8.00;6.75
66195;PMS7003;53000;45.182;5.736;2022-08-19T10:51:36;5.75;5.50;4.00
66195;PMS7003;53000;45.182;5.736;2022-08-19T10:54:21;8.75;8.25;6.00
66195;PMS7003;53000;45.182;5.736;2022-08-19T10:56:47;5.00;4.25;3.00
66195;PMS7003;53000;45.182;5.736;2022-08-19T11:01:52;6.50;6.50;4.50
66195;PMS7003;53000;45.182;5.736;2022-08-19T11:04:19;7.75;7.25;6.00
66195;PMS7003;53000;45.182;5.736;2022-08-19T11:06:45;9.50;7.50;6.25
66195;PMS7003;53000;45.182;5.736;2022-08-19T11:09:13;6.50;6.00;5.00
66195;PMS7003;53000;45.182;5.736;2022-08-19T11:11:40;6.75;6.75;6.00
66195;PMS7003;53000;45.182;5.736;2022-08-19T11:14:07;6.25;6.25;5.00
66195;PMS7003;53000;45.182;5.736;2022-08-19T11:16:34;8.00;8.00;6.75
66195;PMS7003;53000;45.182;5.736;2022-08-19T11:19:00;7.25;7.25;6.00
66195;PMS7003;53000;45.182;5.736;2022-08-19T11:21:29;7.50;6.75;5.00
66195;PMS7003;53000;45.182;5.736;2022-08-19T11:23:59;7.50;7.50;5.75
66195;PMS7003;53000;45.182;5.736;2022-08-19T11:26:27;6.75;6.75;5.25
66195;PMS7003;53000;45.182;5.736;2022-08-19T11:28:55;7.00;7.00;5.50
66195;PMS7003;53000;45.182;5.736;2022-08-19T11:31:23;7.00;7.00;6.00
66195;PMS7003;53000;45.182;5.736;2022-08-19T11:33:50;6.75;6.00;5.25
66195;PMS7003;53000;45.182;5.736;2022-08-19T11:36:17;8.00;8.00;6.50
66195;PMS7003;53000;45.182;5.736;2022-08-19T11:38:45;4.25;4.25;3.50
66195;PMS7003;53000;45.182;5.736;2022-08-19T11:41:13;7.75;6.75;5.25
66195;PMS7003;53000;45.182;5.736;2022-08-19T11:43:40;6.75;6.75;5.25
66195;PMS7003;53000;45.182;5.736;2022-08-19T11:46:07;8.25;7.25;5.75
66195;PMS7003;53000;45.182;5.736;2022-08-19T11:48:35;7.25;7.25;6.00
66195;PMS7003;53000;45.182;5.736;2022-08-19T11:51:03;9.75;8.00;6.75
66195;PMS7003;53000;45.182;5.736;2022-08-19T11:53:31;9.00;7.25;6.00
66195;PMS7003;53000;45.182;5.736;2022-08-19T11:55:58;7.00;4.75;3.50
66195;PMS7003;53000;45.182;5.736;2022-08-19T11:58:23;8.00;8.00;7.00
66195;PMS7003;53000;45.182;5.736;2022-08-19T12:00:49;8.75;7.00;6.00
66195;PMS7003;53000;45.182;5.736;2022-08-19T12:03:15;7.25;7.25;5.50
66195;PMS7003;53000;45.182;5.736;2022-08-19T12:05:41;6.50;6.00;5.75
66195;PMS7003;53000;45.182;5.736;2022-08-19T12:08:07;5.50;5.50;5.00
66195;PMS7003;53000;45.182;5.736;2022-08-19T12:10:33;6.50;6.50;5.75
66195;PMS7003;53000;45.182;5.736;2022-08-19T12:12:59;9.50;8.75;6.00
66195;PMS7003;53000;45.182;5.736;2022-08-19T12:15:25;7.00;7.00;5.00
66195;PMS7003;53000;45.182;5.736;2022-08-19T12:17:53;7.25;7.25;6.25
66195;PMS7003;53000;45.182;5.736;2022-08-19T12:20:21;9.25;9.25;8.00
66195;PMS7003;53000;45.182;5.736;2022-08-19T12:22:48;8.50;8.50;6.00
66195;PMS7003;53000;45.182;5.736;2022-08-19T12:25:13;9.75;8.75;7.25
66195;PMS7003;53000;45.182;5.736;2022-08-19T12:27:39;9.00;7.25;7.00
66195;PMS7003;53000;45.182;5.736;2022-08-19T12:30:05;9.50;9.00;7.00
66195;PMS7003;53000;45.182;5.736;2022-08-19T12:32:33;6.75;6.00;5.00
66195;PMS7003;53000;45.182;5.736;2022-08-19T12:34:58;8.50;7.50;6.25
66195;PMS7003;53000;45.182;5.736;2022-08-19T12:37:24;10.00;10.00;7.50
66195;PMS7003;53000;45.182;5.736;2022-08-19T12:39:49;9.00;8.75;7.50
66195;PMS7003;53000;45.182;5.736;2022-08-19T12:42:15;9.00;8.00;7.00
66195;PMS7003;53000;45.182;5.736;2022-08-19T12:44:43;11.00;11.00;8.00
66195;PMS7003;53000;45.182;5.736;2022-08-19T12:47:10;9.50;9.25;7.50
66195;PMS7003;53000;45.182;5.736;2022-08-19T12:49:37;9.25;9.25;8.25
66195;PMS7003;53000;45.182;5.736;2022-08-19T12:52:04;9.00;8.75;7.75
66195;PMS7003;53000;45.182;5.736;2022-08-19T12:54:30;8.25;8.25;7.50
66195;PMS7003;53000;45.182;5.736;2022-08-19T12:56:56;8.00;8.00;6.00
66195;PMS7003;53000;45.182;5.736;2022-08-19T12:59:22;11.00;9.00;6.25
66195;PMS7003;53000;45.182;5.736;2022-08-19T13:01:48;10.50;8.75;7.50
66195;PMS7003;53000;45.182;5.736;2022-08-19T13:04:13;7.75;7.25;6.25
66195;PMS7003;53000;45.182;5.736;2022-08-19T13:06:40;9.00;8.50;6.75
66195;PMS7003;53000;45.182;5.736;2022-08-19T13:09:05;13.75;11.00;9.00
66195;PMS7003;53000;45.182;5.736;2022-08-19T13:11:31;7.50;7.50;6.75
66195;PMS7003;53000;45.182;5.736;2022-08-19T13:13:58;21.00;15.75;11.25
66195;PMS7003;53000;45.182;5.736;2022-08-19T13:16:24;13.75;13.00;10.00
66195;PMS7003;53000;45.182;5.736;2022-08-19T13:18:52;17.50;14.50;11.00
66195;PMS7003;53000;45.182;5.736;2022-08-19T13:21:18;15.00;13.75;9.50
66195;PMS7003;53000;45.182;5.736;2022-08-19T13:23:45;18.50;16.50;11.25
66195;PMS7003;53000;45.182;5.736;2022-08-19T13:26:11;11.75;10.50;8.50
66195;PMS7003;53000;45.182;5.736;2022-08-19T13:28:38;12.25;12.25;8.75
66195;PMS7003;53000;45.182;5.736;2022-08-19T13:31:24;17.00;15.75;12.00
66195;PMS7003;53000;45.182;5.736;2022-08-19T13:34:09;15.50;14.25;11.50
66195;PMS7003;53000;45.182;5.736;2022-08-19T13:36:35;15.25;15.25;11.75
66195;PMS7003;53000;45.182;5.736;2022-08-19T13:39:01;12.00;12.00;9.50
66195;PMS7003;53000;45.182;5.736;2022-08-19T13:41:27;19.25;17.00;12.25
66195;PMS7003;53000;45.182;5.736;2022-08-19T13:43:53;19.50;17.75;12.50
66195;PMS7003;53000;45.182;5.736;2022-08-19T13:46:19;22.25;19.00;14.00
66195;PMS7003;53000;45.182;5.736;2022-08-19T13:48:45;15.50;14.75;11.25
66195;PMS7003;53000;45.182;5.736;2022-08-19T13:51:11;19.75;18.75;14.00
66195;PMS7003;53000;45.182;5.736;2022-08-19T13:53:37;18.25;16.75;13.25
66195;PMS7003;53000;45.182;5.736;2022-08-19T13:56:07;17.00;17.00;11.25
66195;PMS7003;53000;45.182;5.736;2022-08-19T13:58:34;20.25;17.75;12.75
66195;PMS7003;53000;45.182;5.736;2022-08-19T14:00:59;16.75;15.00;11.50
66195;PMS7003;53000;45.182;5.736;2022-08-19T14:03:25;17.25;17.25;12.50
66195;PMS7003;53000;45.182;5.736;2022-08-19T14:05:51;21.50;20.25;15.00
66195;PMS7003;53000;45.182;5.736;2022-08-19T14:08:17;21.50;19.00;14.00
66195;PMS7003;53000;45.182;5.736;2022-08-19T14:10:43;18.50;18.00;14.25
66195;PMS7003;53000;45.182;5.736;2022-08-19T14:13:10;15.25;15.25;12.00
66195;PMS7003;53000;45.182;5.736;2022-08-19T14:15:37;20.00;19.50;14.00
66195;PMS7003;53000;45.182;5.736;2022-08-19T14:18:03;18.50;17.50;13.75
66195;PMS7003;53000;45.182;5.736;2022-08-19T14:20:28;17.00;17.00;12.00
66195;PMS7003;53000;45.182;5.736;2022-08-19T14:22:54;17.00;15.75;13.00
66195;PMS7003;53000;45.182;5.736;2022-08-19T14:25:21;18.50;17.75;14.00
66195;PMS7003;53000;45.182;5.736;2022-08-19T14:27:49;20.00;19.25;12.00
66195;PMS7003;53000;45.182;5.736;2022-08-19T14:30:17;19.75;16.00;13.25
66195;PMS7003;53000;45.182;5.736;2022-08-19T14:32:44;20.75;18.00;13.00
66195;PMS7003;53000;45.182;5.736;2022-08-19T14:35:10;20.00;18.00;12.50
66195;PMS7003;53000;45.182;5.736;2022-08-19T14:37:39;15.25;15.00;11.75